Time;durP1;ratioP1;P1;durP2;ratioP2;P2;SDS_P1;SDS_P2;PMS_P1;PMS_P2;Temp;Humidity;BMP_temperature;BMP_pressure;BME280_temperature;BME280_humidity;BME280_pressure;Samples;Min_cycle;Max_cycle;Signal;HPM_P1;HPM_P2
2022/08/06 00:04:13;;;;;;;11.10;10.10;;;28.70;48.70;;;;;;4831369;56;21055;-31
2022/08/06 00:09:15;;;;;;;10.75;9.82;;;28.70;48.70;;;;;;4952052;56;21101;-32
2022/08/06 00:14:16;;;;;;;11.48;10.48;;;28.70;48.60;;;;;;4619915;56;21075;-34
2022/08/06 00:19:16;;;;;;;11.40;10.40;;;28.70;48.70;;;;;;4673704;56;21042;-33
2022/08/06 00:24:17;;;;;;;10.77;9.88;;;28.70;48.70;;;;;;4616142;60;21032;-33
2022/08/06 00:29:18;;;;;;;11.10;10.15;;;28.80;48.80;;;;;;4839254;56;21039;-32
2022/08/06 00:34:19;;;;;;;10.70;9.80;;;28.70;48.70;;;;;;4663189;56;21094;-33
2022/08/06 00:39:20;;;;;;;11.00;10.00;;;28.70;48.90;;;;;;4616226;57;21035;-33
2022/08/06 00:44:21;;;;;;;10.40;9.50;;;28.80;48.70;;;;;;4728622;56;21040;-32
2022/08/06 00:49:22;;;;;;;10.65;9.68;;;28.70;48.90;;;;;;4616072;60;21107;-30
2022/08/06 00:54:23;;;;;;;10.82;9.93;;;28.80;48.90;;;;;;4649072;56;21047;-32
2022/08/06 00:59:23;;;;;;;10.27;9.38;;;28.70;48.80;;;;;;4616273;60;21104;-29
2022/08/06 01:04:24;;;;;;;10.13;9.23;;;28.70;49.70;;;;;;4653819;56;21050;-26
2022/08/06 01:09:26;;;;;;;10.77;9.88;;;28.70;48.90;;;;;;4616200;60;21628;-30
2022/08/06 01:14:27;;;;;;;10.27;9.38;;;28.70;48.80;;;;;;4810298;56;21613;-34
2022/08/06 01:20:11;;;;;;;10.77;9.68;;;28.80;48.80;;;;;;4615969;60;21095;-31
2022/08/06 01:27:55;;;;;;;10.45;9.52;;;28.70;48.90;;;;;;4811654;56;21091;-30
2022/08/06 01:33:07;;;;;;;;;;;28.70;49.00;;;;;;4770510;56;21102;-30
2022/08/06 01:38:13;;;;;;;10.82;9.75;;;28.70;48.90;;;;;;4835425;56;20122;-32
2022/08/06 01:43:17;;;;;;;10.68;9.73;;;28.70;48.90;;;;;;4743947;56;21056;-33
2022/08/06 01:48:23;;;;;;;9.95;9.15;;;28.70;49.30;;;;;;4885461;56;21020;-31
2022/08/06 01:53:34;;;;;;;10.75;9.80;;;28.70;49.20;;;;;;4689877;56;21657;-30
2022/08/06 01:58:39;;;;;;;9.88;9.07;;;28.70;49.00;;;;;;4615966;60;21083;-29
2022/08/06 02:03:54;;;;;;;10.05;9.18;;;28.70;49.00;;;;;;4700147;56;21031;-31
2022/08/06 02:08:58;;;;;;;9.90;9.05;;;28.70;49.00;;;;;;4661289;56;21144;-31
2022/08/06 02:14:00;;;;;;;9.98;9.10;;;28.70;49.10;;;;;;4654744;56;21118;-31
2022/08/06 02:19:04;;;;;;;9.40;8.60;;;28.70;49.20;;;;;;4627736;56;21493;-32
2022/08/06 02:24:08;;;;;;;9.25;8.52;;;28.80;49.60;;;;;;4616369;60;21099;-31
2022/08/06 02:29:17;;;;;;;9.52;8.73;;;28.70;49.20;;;;;;4616520;60;21092;-30
2022/08/06 02:34:22;;;;;;;10.15;9.00;;;28.70;49.40;;;;;;4615873;56;21125;-32
2022/08/06 02:39:48;;;;;;;9.52;8.73;;;28.70;49.10;;;;;;4714825;56;21103;-32
2022/08/06 02:44:59;;;;;;;9.27;8.48;;;28.70;49.40;;;;;;4670405;56;21095;-33
2022/08/06 02:50:03;;;;;;;9.57;8.73;;;28.70;49.80;;;;;;4616590;60;21019;-33
2022/08/06 02:55:15;;;;;;;10.10;9.20;;;28.70;49.80;;;;;;4808667;56;21074;-30
2022/08/06 03:00:16;;;;;;;9.20;8.40;;;28.70;49.10;;;;;;4660331;56;21155;-29
2022/08/06 03:05:20;;;;;;;9.45;8.65;;;28.70;49.40;;;;;;4642358;56;21581;-31
2022/08/06 03:10:24;;;;;;;9.25;8.45;;;28.70;49.40;;;;;;4981014;56;21055;-31
2022/08/06 03:15:26;;;;;;;9.25;8.50;;;28.70;49.30;;;;;;4814840;56;21063;-34
2022/08/06 03:20:28;;;;;;;9.25;8.45;;;28.70;49.10;;;;;;4727294;56;21034;-32
2022/08/06 03:25:31;;;;;;;8.52;7.82;;;28.70;49.10;;;;;;4618221;56;21037;-31
2022/08/06 03:30:33;;;;;;;8.98;8.18;;;28.70;49.10;;;;;;4618504;56;21024;-32
2022/08/06 03:35:35;;;;;;;8.93;8.23;;;28.70;49.00;;;;;;4671513;56;21358;-30
2022/08/06 03:40:43;;;;;;;8.82;8.02;;;28.70;49.00;;;;;;4858169;56;21066;-31
2022/08/06 03:45:50;;;;;;;8.80;8.00;;;28.70;48.90;;;;;;4759450;56;21015;-31
2022/08/06 03:50:53;;;;;;;8.38;7.68;;;28.70;48.90;;;;;;4616433;60;21574;-33
2022/08/06 03:56:01;;;;;;;8.55;7.85;;;28.70;48.80;;;;;;4783437;56;21051;-33
2022/08/06 04:01:05;;;;;;;8.40;7.70;;;28.70;48.80;;;;;;4719026;56;21007;-31
2022/08/06 04:06:12;;;;;;;8.60;7.78;;;28.70;49.00;;;;;;4904745;56;21078;-29
2022/08/06 04:11:13;;;;;;;8.77;8.02;;;28.60;48.80;;;;;;4725707;56;21175;-33
2022/08/06 04:16:16;;;;;;;8.30;7.60;;;28.60;48.80;;;;;;4615605;60;21549;-32
2022/08/06 04:21:22;;;;;;;8.43;7.62;;;28.60;48.70;;;;;;4675619;56;21019;-30
2022/08/06 04:26:24;;;;;;;7.80;7.20;;;28.70;48.70;;;;;;4791323;56;21023;-33
2022/08/06 04:31:27;;;;;;;8.55;7.72;;;28.60;48.60;;;;;;4768396;56;21035;-31
2022/08/06 04:36:29;;;;;;;8.10;7.40;;;28.60;48.70;;;;;;4737029;56;21051;-31
2022/08/06 04:41:31;;;;;;;9.65;7.80;;;28.60;48.60;;;;;;4691610;56;21027;-33
2022/08/06 04:46:33;;;;;;;8.48;7.72;;;28.60;48.50;;;;;;4687203;56;21031;-34
2022/08/06 04:51:34;;;;;;;8.23;7.53;;;28.60;48.50;;;;;;4616384;60;21032;-32
2022/08/06 04:56:35;;;;;;;8.23;7.43;;;28.60;48.50;;;;;;4654016;56;21569;-32
2022/08/06 05:01:37;;;;;;;8.32;7.37;;;28.60;48.50;;;;;;4634501;56;21086;-32
2022/08/06 05:07:04;;;;;;;8.70;7.70;;;28.60;48.40;;;;;;4631985;56;21045;-30
2022/08/06 05:12:12;;;;;;;8.00;7.30;;;28.60;48.50;;;;;;4753874;56;21048;-30
2022/08/06 05:17:17;;;;;;;7.80;7.20;;;28.60;48.40;;;;;;4615224;60;21034;-31
2022/08/06 05:22:19;;;;;;;8.68;7.22;;;28.60;48.50;;;;;;4649324;56;21007;-31
2022/08/06 05:27:20;;;;;;;8.13;7.43;;;28.60;48.40;;;;;;5017884;56;21577;-30
2022/08/06 05:32:21;;;;;;;7.53;6.75;;;28.60;48.50;;;;;;4625988;56;21011;-30
2022/08/06 05:37:22;;;;;;;7.93;7.22;;;28.60;48.50;;;;;;4695085;56;21052;-29
2022/08/06 05:42:23;;;;;;;8.27;7.57;;;28.60;48.40;;;;;;4616234;60;21086;-32
2022/08/06 05:47:28;;;;;;;8.38;7.28;;;28.60;48.50;;;;;;4674595;56;21095;-33
2022/08/06 05:52:58;;;;;;;8.77;7.80;;;28.60;48.50;;;;;;4740096;56;21086;-30
2022/08/06 05:58:17;;;;;;;8.55;7.70;;;28.60;48.40;;;;;;4616556;56;21561;-32
2022/08/06 06:03:19;;;;;;;8.40;7.53;;;28.60;48.40;;;;;;4656570;56;21059;-33
2022/08/06 06:08:21;;;;;;;8.20;7.43;;;28.60;48.50;;;;;;4832226;56;21083;-33
2022/08/06 06:13:24;;;;;;;8.20;7.35;;;28.60;48.60;;;;;;4675663;56;21561;-31
2022/08/06 06:18:44;;;;;;;7.93;7.22;;;28.60;48.40;;;;;;4731844;56;21094;-30
2022/08/06 06:24:02;;;;;;;8.50;7.70;;;28.60;48.50;;;;;;4738085;56;21007;-31
2022/08/06 06:29:59;;;;;;;8.50;7.70;;;28.60;48.50;;;;;;4877303;56;21091;-30
2022/08/06 06:35:12;;;;;;;8.73;7.87;;;28.60;48.50;;;;;;4631529;56;21019;-31
2022/08/06 06:40:47;;;;;;;8.63;7.72;;;28.50;48.50;;;;;;4650399;56;21031;-29
2022/08/06 06:45:57;;;;;;;9.17;8.27;;;28.60;48.60;;;;;;4762138;56;21115;-29
2022/08/06 06:51:03;;;;;;;9.90;8.80;;;28.60;48.60;;;;;;4992270;56;21076;-31
2022/08/06 06:56:06;;;;;;;9.50;8.07;;;28.60;48.70;;;;;;4692161;56;21055;-29
2022/08/06 07:01:10;;;;;;;10.23;8.43;;;28.60;48.50;;;;;;4811414;56;21107;-30
2022/08/06 07:06:12;;;;;;;9.68;8.68;;;28.60;48.70;;;;;;4834706;56;21087;-30
2022/08/06 07:11:25;;;;;;;9.32;8.50;;;28.60;48.70;;;;;;4633551;56;21116;-31
2022/08/06 07:16:28;;;;;;;9.27;8.38;;;28.60;48.70;;;;;;5028607;56;21087;-31
2022/08/06 07:21:29;;;;;;;9.40;8.50;;;28.60;48.70;;;;;;4616148;60;21070;-31
2022/08/06 07:26:30;;;;;;;10.63;8.75;;;28.60;48.60;;;;;;4699289;56;21543;-33
2022/08/06 07:31:32;;;;;;;9.55;8.65;;;28.60;48.70;;;;;;4758353;56;21536;-31
2022/08/06 07:36:39;;;;;;;10.77;8.80;;;28.60;48.60;;;;;;4623887;56;21039;-30
2022/08/06 07:41:40;;;;;;;9.35;8.45;;;28.60;48.60;;;;;;4627431;56;21075;-31
2022/08/06 07:46:48;;;;;;;9.93;8.95;;;28.60;48.60;;;;;;4727457;56;21023;-35
2022/08/06 07:51:50;;;;;;;9.48;8.48;;;28.60;48.60;;;;;;4919647;56;21541;-31
2022/08/06 07:56:52;;;;;;;11.27;8.98;;;28.60;48.70;;;;;;4728790;56;21557;-30
2022/08/06 08:01:54;;;;;;;9.82;8.80;;;28.60;48.60;;;;;;4725064;56;20983;-30
2022/08/06 08:06:58;;;;;;;9.55;8.55;;;28.60;48.60;;;;;;4676764;56;21030;-29
2022/08/06 08:12:00;;;;;;;9.93;8.93;;;28.60;48.60;;;;;;4699039;56;21521;-36
2022/08/06 08:17:02;;;;;;;9.57;8.68;;;28.60;48.60;;;;;;4676710;56;21191;-31
2022/08/06 08:22:06;;;;;;;10.18;9.15;;;28.60;48.20;;;;;;4662580;56;21048;-31
2022/08/06 08:27:10;;;;;;;8.98;8.07;;;28.60;48.60;;;;;;4738481;56;21564;-30
2022/08/06 08:32:11;;;;;;;9.60;8.70;;;28.60;48.60;;;;;;4647787;56;21063;-32
2022/08/06 08:37:12;;;;;;;9.85;8.85;;;28.60;48.60;;;;;;4644557;56;21474;-31
2022/08/06 08:42:44;;;;;;;9.80;8.65;;;28.60;48.60;;;;;;4626471;56;21023;-32
2022/08/06 08:47:50;;;;;;;10.25;9.15;;;28.70;48.70;;;;;;4636905;56;21514;-31
2022/08/06 08:52:55;;;;;;;10.60;9.50;;;28.70;48.70;;;;;;4831932;56;21506;-31
2022/08/06 08:57:57;;;;;;;9.88;8.70;;;28.60;48.70;;;;;;4780516;56;21095;-29
2022/08/06 09:02:58;;;;;;;9.23;8.32;;;28.60;48.70;;;;;;4671809;56;21035;-35
2022/08/06 09:08:01;;;;;;;10.68;9.60;;;28.70;48.70;;;;;;4715383;56;21103;-32
2022/08/06 09:13:02;;;;;;;10.90;9.80;;;28.70;48.80;;;;;;4623140;56;21043;-30
2022/08/06 09:18:04;;;;;;;10.95;9.85;;;28.70;48.70;;;;;;4773062;56;21079;-30
2022/08/06 09:23:05;;;;;;;10.48;9.48;;;28.70;48.70;;;;;;4675451;56;21516;-32
2022/08/06 09:28:27;;;;;;;11.27;10.18;;;28.70;48.70;;;;;;4756467;56;21039;-34
2022/08/06 09:33:30;;;;;;;10.18;9.25;;;28.70;48.70;;;;;;4616334;57;21091;-31
2022/08/06 09:38:31;;;;;;;11.20;10.13;;;28.70;48.70;;;;;;4667476;56;21035;-32
2022/08/06 09:43:32;;;;;;;11.12;10.13;;;28.70;48.60;;;;;;4631353;56;21040;-34
2022/08/06 09:48:34;;;;;;;11.85;10.65;;;28.70;48.60;;;;;;4658220;56;21111;-34
2022/08/06 09:53:50;;;;;;;12.27;10.98;;;28.70;48.60;;;;;;4664986;56;21087;-35
2022/08/06 09:59:01;;;;;;;11.65;10.55;;;28.70;48.60;;;;;;4680395;56;21015;-33
2022/08/06 10:04:02;;;;;;;12.00;10.80;;;28.70;48.50;;;;;;4695682;56;21019;-30
2022/08/06 10:09:12;;;;;;;11.90;10.75;;;28.70;48.50;;;;;;4724719;56;21079;-34
2022/08/06 10:14:31;;;;;;;12.77;11.48;;;28.70;48.50;;;;;;4809554;56;21051;-32
2022/08/06 10:19:32;;;;;;;12.82;11.52;;;28.80;48.50;;;;;;4681341;56;21027;-30
2022/08/06 10:24:54;;;;;;;12.73;11.00;;;28.80;48.50;;;;;;4692636;56;21083;-30
2022/08/06 10:30:00;;;;;;;12.68;11.35;;;28.80;48.50;;;;;;4639958;56;21136;-30
2022/08/06 10:35:03;;;;;;;;;;;28.80;48.50;;;;;;4732352;56;21051;-31
2022/08/06 10:40:07;;;;;;;13.23;11.93;;;28.80;48.40;;;;;;4642687;56;20069;-31
2022/08/06 10:45:10;;;;;;;13.60;11.70;;;28.80;48.40;;;;;;4618432;56;21060;-31
2022/08/06 10:50:13;;;;;;;13.07;11.68;;;28.80;48.40;;;;;;4616276;60;21047;-34
2022/08/06 10:55:14;;;;;;;12.90;11.65;;;28.80;48.40;;;;;;4620638;56;21545;-29
2022/08/06 11:00:15;;;;;;;12.75;11.48;;;28.80;48.30;;;;;;4616066;57;21068;-31
2022/08/06 11:05:19;;;;;;;12.82;11.52;;;28.80;48.30;;;;;;4780982;56;21023;-31
2022/08/06 11:11:23;;;;;;;13.25;11.85;;;28.80;48.30;;;;;;4615835;60;21621;-32
2022/08/06 11:16:26;;;;;;;14.07;12.65;;;28.80;48.30;;;;;;4706917;56;21071;-33
2022/08/06 11:21:47;;;;;;;14.87;12.25;;;28.80;48.30;;;;;;4616377;60;21095;-34
2022/08/06 11:26:47;;;;;;;13.68;12.27;;;28.80;48.20;;;;;;4717629;56;21067;-29
2022/08/06 11:31:50;;;;;;;13.25;11.95;;;28.80;48.20;;;;;;4777338;56;21122;-32
2022/08/06 11:36:58;;;;;;;13.73;12.35;;;28.80;48.20;;;;;;4650412;56;21036;-33
2022/08/06 11:42:02;;;;;;;13.43;12.02;;;28.90;48.30;;;;;;4730197;56;21566;-29
2022/08/06 11:47:19;;;;;;;13.27;11.88;;;28.90;48.20;;;;;;4632991;56;21557;-33
2022/08/06 11:54:25;;;;;;;13.52;12.13;;;28.90;48.30;;;;;;4728515;56;22218;-30
2022/08/06 11:59:32;;;;;;;13.60;12.30;;;28.90;48.20;;;;;;4633365;56;21008;-30
2022/08/06 12:04:50;;;;;;;13.18;11.88;;;28.90;48.20;;;;;;4663726;56;21027;-35
2022/08/06 12:11:43;;;;;;;13.90;12.50;;;28.90;48.20;;;;;;4864471;56;21067;-31
2022/08/06 12:16:44;;;;;;;13.77;12.37;;;28.90;48.10;;;;;;4622832;56;21602;-31
2022/08/06 12:21:52;;;;;;;12.88;11.57;;;28.90;48.00;;;;;;4728448;56;21023;-33
2022/08/06 12:26:53;;;;;;;13.62;12.32;;;28.90;48.10;;;;;;4816629;56;21054;-32
2022/08/06 12:31:54;;;;;;;14.25;12.65;;;28.90;48.00;;;;;;4646030;56;21513;-31
2022/08/06 12:36:56;;;;;;;14.05;12.55;;;28.90;48.00;;;;;;4615008;60;21047;-32
2022/08/06 12:41:57;;;;;;;13.75;12.37;;;28.90;47.90;;;;;;4748952;56;21490;-31
2022/08/06 12:47:13;;;;;;;13.10;11.80;;;28.90;47.90;;;;;;4638123;56;21075;-30
2022/08/06 12:52:20;;;;;;;14.02;12.63;;;28.90;48.50;;;;;;4646481;56;21035;-30
2022/08/06 12:57:27;;;;;;;13.90;12.50;;;29.00;47.90;;;;;;4666302;56;21498;-36
2022/08/06 13:02:28;;;;;;;14.15;12.65;;;28.90;47.80;;;;;;4651495;56;21004;-31
2022/08/06 13:07:29;;;;;;;13.77;12.48;;;28.90;47.80;;;;;;4654195;56;21528;-30
2022/08/06 13:12:30;;;;;;;14.13;12.73;;;29.00;47.80;;;;;;4651763;56;21102;-31
2022/08/06 13:17:31;;;;;;;13.95;12.50;;;29.00;48.00;;;;;;4696405;56;21035;-29
2022/08/06 13:22:48;;;;;;;13.88;12.45;;;28.90;47.80;;;;;;4634815;56;21500;-30
2022/08/06 13:27:49;;;;;;;13.38;11.98;;;29.00;47.80;;;;;;4975438;56;21027;-31
2022/08/06 13:32:50;;;;;;;13.68;12.37;;;29.00;47.80;;;;;;4628708;56;21122;-34
2022/08/06 13:37:53;;;;;;;14.32;12.15;;;29.00;47.80;;;;;;4625491;56;21031;-32
2022/08/06 13:42:57;;;;;;;14.20;12.75;;;29.00;47.80;;;;;;4621150;56;21071;-31
2022/08/06 13:48:11;;;;;;;14.05;12.65;;;29.00;48.40;;;;;;4728098;56;21023;-31
2022/08/06 13:53:13;;;;;;;14.15;12.73;;;29.00;47.70;;;;;;4939487;56;21137;-31
2022/08/06 13:58:13;;;;;;;13.77;12.30;;;29.00;47.70;;;;;;4616135;60;21067;-33
2022/08/06 14:03:14;;;;;;;13.43;12.13;;;29.00;47.60;;;;;;4616134;60;21114;-30
2022/08/06 14:08:15;;;;;;;13.23;11.90;;;29.00;47.70;;;;;;4635984;56;21067;-30
2022/08/06 14:13:16;;;;;;;13.52;12.23;;;29.00;47.60;;;;;;4734222;56;21063;-30
2022/08/06 14:18:20;;;;;;;13.40;12.10;;;29.00;47.60;;;;;;4658498;56;21582;-30
2022/08/06 14:23:20;;;;;;;12.50;11.40;;;29.00;47.50;;;;;;4850796;56;21020;-30
2022/08/06 14:28:21;;;;;;;13.32;12.02;;;29.00;47.50;;;;;;4643819;56;21534;-32
2022/08/06 14:33:22;;;;;;;13.13;11.85;;;29.00;47.60;;;;;;4739354;56;22890;-31
2022/08/06 14:38:23;;;;;;;12.95;11.65;;;29.00;47.50;;;;;;4616132;60;21111;-32
2022/08/06 14:48:43;;;;;;;12.60;11.40;;;29.00;47.50;;;;;;4724696;56;21174;-30
2022/08/06 14:53:44;;;;;;;12.63;11.50;;;29.00;47.50;;;;;;4898190;56;21123;-31
2022/08/06 14:58:44;;;;;;;12.25;11.05;;;29.00;47.50;;;;;;4823874;56;21047;-32
2022/08/06 15:03:45;;;;;;;12.85;11.55;;;29.00;48.10;;;;;;4659886;56;21069;-35
2022/08/06 15:08:46;;;;;;;13.13;11.75;;;29.00;47.60;;;;;;4771882;56;21099;-34
2022/08/06 15:13:47;;;;;;;13.07;11.85;;;29.00;47.50;;;;;;4615050;60;21121;-30
2022/08/06 15:18:48;;;;;;;12.60;11.50;;;29.10;47.60;;;;;;4647087;56;21067;-29
2022/08/06 15:23:49;;;;;;;12.82;11.52;;;29.10;47.60;;;;;;4632816;56;21035;-32
2022/08/06 15:28:50;;;;;;;12.98;11.77;;;29.10;47.50;;;;;;4754941;56;21043;-35
2022/08/06 15:33:51;;;;;;;11.90;10.77;;;29.10;47.50;;;;;;4697115;56;21031;-32
2022/08/06 15:38:53;;;;;;;12.88;11.65;;;29.10;47.50;;;;;;4748656;56;21032;-31
2022/08/06 15:43:53;;;;;;;12.18;11.05;;;29.10;47.50;;;;;;4677981;56;21538;-32
2022/08/06 15:48:54;;;;;;;11.90;10.80;;;29.10;47.60;;;;;;4615894;57;21096;-32
2022/08/06 15:53:55;;;;;;;12.70;11.40;;;29.10;47.50;;;;;;4899250;56;21040;-30
2022/08/06 15:58:56;;;;;;;11.77;10.68;;;29.10;47.50;;;;;;4670073;56;21505;-31
2022/08/06 16:03:57;;;;;;;12.05;10.95;;;29.10;47.50;;;;;;4691814;56;21151;-33
2022/08/06 16:08:58;;;;;;;12.52;11.32;;;29.10;47.50;;;;;;4730792;56;21079;-31
2022/08/06 16:13:59;;;;;;;13.07;11.77;;;29.10;47.50;;;;;;4615124;60;21617;-31
2022/08/06 16:19:00;;;;;;;13.65;12.25;;;29.10;47.50;;;;;;4835845;56;21038;-31
2022/08/06 16:24:02;;;;;;;11.73;10.63;;;29.10;47.50;;;;;;4638201;56;21066;-34
2022/08/06 16:29:03;;;;;;;11.80;10.70;;;29.10;47.40;;;;;;4635212;56;21557;-34
2022/08/06 16:34:04;;;;;;;12.18;10.98;;;29.10;47.50;;;;;;4783541;56;21110;-32
2022/08/06 16:39:05;;;;;;;12.88;11.57;;;29.10;47.50;;;;;;4690132;56;21565;-33
2022/08/06 16:44:06;;;;;;;11.80;10.73;;;29.10;47.90;;;;;;4615975;60;21043;-31
2022/08/06 16:49:07;;;;;;;12.45;11.15;;;29.10;47.40;;;;;;4687841;56;21087;-30
2022/08/06 16:54:08;;;;;;;12.18;11.05;;;29.10;47.40;;;;;;4777548;56;21503;-34
2022/08/06 16:59:09;;;;;;;13.07;11.77;;;29.10;47.50;;;;;;4616082;56;21111;-32
2022/08/06 17:04:10;;;;;;;11.82;10.73;;;29.10;47.50;;;;;;4617884;56;21047;-31
2022/08/06 17:09:11;;;;;;;12.37;11.18;;;29.10;47.50;;;;;;4616535;60;21541;-32
2022/08/06 17:14:11;;;;;;;11.52;10.48;;;29.10;47.50;;;;;;4649573;56;21177;-32
2022/08/06 17:19:12;;;;;;;12.27;11.07;;;29.10;47.50;;;;;;4689101;56;21031;-33
2022/08/06 17:24:13;;;;;;;12.07;10.98;;;29.10;47.50;;;;;;4754799;56;21034;-33
2022/08/06 17:29:15;;;;;;;11.48;10.38;;;29.10;47.50;;;;;;4684395;56;21054;-33
2022/08/06 17:34:16;;;;;;;12.00;10.73;;;29.10;47.50;;;;;;4616007;57;21525;-31
2022/08/06 17:39:17;;;;;;;12.85;11.18;;;29.10;47.50;;;;;;4616073;60;21043;-25
2022/08/06 17:44:18;;;;;;;11.23;10.23;;;29.10;47.50;;;;;;4732301;56;21099;-31
2022/08/06 17:49:19;;;;;;;11.65;10.55;;;29.10;47.50;;;;;;4616004;60;21115;-34
2022/08/06 17:54:20;;;;;;;12.75;11.52;;;29.10;47.50;;;;;;4616182;58;21514;-35
2022/08/06 17:59:21;;;;;;;12.30;11.02;;;29.20;47.60;;;;;;4697215;56;21087;-30
2022/08/06 18:04:24;;;;;;;12.15;11.05;;;29.10;47.50;;;;;;4724444;56;21462;-31
2022/08/06 18:09:25;;;;;;;11.95;10.73;;;29.10;47.60;;;;;;4616060;58;21036;-31
2022/08/06 18:14:29;;;;;;;12.40;10.95;;;29.20;47.70;;;;;;4615020;60;21167;-32
2022/08/06 18:19:30;;;;;;;11.57;10.38;;;29.20;47.70;;;;;;4728699;56;21087;-32
2022/08/06 18:24:31;;;;;;;12.43;11.32;;;29.20;47.70;;;;;;4849893;56;21565;-33
2022/08/06 18:29:32;;;;;;;11.88;10.77;;;29.10;47.70;;;;;;4652035;56;21080;-31
2022/08/06 18:34:34;;;;;;;11.63;10.43;;;29.20;47.80;;;;;;4637733;56;21525;-32
2022/08/06 18:39:36;;;;;;;12.05;10.95;;;29.10;47.70;;;;;;4809249;56;21569;-34
2022/08/06 18:44:37;;;;;;;11.52;10.43;;;29.20;47.90;;;;;;4798029;56;21587;-31
2022/08/06 18:49:38;;;;;;;12.68;11.45;;;29.20;47.90;;;;;;4615935;58;21161;-30
2022/08/06 18:54:43;;;;;;;12.57;11.38;;;29.20;48.00;;;;;;4615926;57;21107;-31
2022/08/06 18:59:44;;;;;;;11.77;10.68;;;29.10;47.90;;;;;;4697681;56;21625;-31
2022/08/06 19:04:45;;;;;;;13.13;11.82;;;29.10;48.00;;;;;;4665277;56;21051;-31
2022/08/06 19:09:48;;;;;;;13.20;11.90;;;29.10;47.90;;;;;;4651459;56;21023;-31
2022/08/06 19:14:49;;;;;;;13.50;12.20;;;29.20;48.00;;;;;;4978821;56;21585;-31
2022/08/06 19:19:50;;;;;;;12.02;10.82;;;29.20;48.00;;;;;;4682789;56;21023;-32
2022/08/06 19:24:51;;;;;;;12.95;11.73;;;29.20;48.10;;;;;;4712090;56;21569;-31
2022/08/06 19:29:52;;;;;;;12.90;11.73;;;29.20;48.20;;;;;;4762712;56;21059;-31
2022/08/06 19:34:54;;;;;;;13.05;11.82;;;29.20;48.20;;;;;;4718978;56;21050;-35
2022/08/06 19:45:15;;;;;;;12.52;11.32;;;29.20;48.30;;;;;;4615637;56;21047;-34
2022/08/06 19:50:17;;;;;;;13.15;11.63;;;29.20;48.40;;;;;;4639631;56;21079;-34
2022/08/06 19:55:18;;;;;;;11.93;10.82;;;29.20;48.40;;;;;;4760966;56;21007;-34
2022/08/06 20:00:20;;;;;;;12.35;11.20;;;29.20;48.40;;;;;;4615890;57;21038;-36
2022/08/06 20:05:23;;;;;;;12.65;11.45;;;29.20;48.50;;;;;;4616121;60;21795;-31
2022/08/06 20:10:24;;;;;;;12.35;11.12;;;29.20;48.50;;;;;;4735693;56;21063;-34
2022/08/06 20:15:26;;;;;;;12.65;10.57;;;29.20;48.50;;;;;;4615612;57;21055;-30
2022/08/06 20:20:27;;;;;;;12.02;10.88;;;29.20;48.60;;;;;;4782633;56;21532;-32
2022/08/06 20:25:28;;;;;;;12.52;11.32;;;29.20;48.60;;;;;;4686472;56;21032;-32
2022/08/06 20:30:29;;;;;;;12.40;11.20;;;29.20;48.60;;;;;;4802852;56;21501;-32
2022/08/06 20:35:29;;;;;;;12.40;11.27;;;29.20;48.60;;;;;;4615292;60;21083;-34
2022/08/06 20:40:30;;;;;;;12.82;11.63;;;29.20;48.70;;;;;;4667432;56;21075;-34
2022/08/06 20:45:31;;;;;;;12.75;11.48;;;29.20;48.70;;;;;;4644692;56;21540;-32
2022/08/06 20:50:33;;;;;;;13.13;11.73;;;29.20;48.80;;;;;;4616640;57;21088;-34
2022/08/06 20:55:36;;;;;;;12.73;11.52;;;29.20;48.80;;;;;;4762193;56;21549;-33
2022/08/06 21:00:37;;;;;;;12.20;11.00;;;29.20;48.80;;;;;;4655098;56;21478;-33
2022/08/06 21:05:38;;;;;;;11.98;10.88;;;29.20;48.90;;;;;;4686324;56;21066;-32
2022/08/06 21:10:39;;;;;;;12.00;10.80;;;29.20;48.90;;;;;;4789976;56;21537;-31
2022/08/06 21:15:40;;;;;;;11.43;10.43;;;29.20;48.90;;;;;;4664123;56;21092;-33
2022/08/06 21:20:41;;;;;;;12.80;11.55;;;29.20;48.90;;;;;;4972753;56;21055;-32
2022/08/06 21:25:41;;;;;;;11.82;10.73;;;29.20;49.00;;;;;;4659256;56;21019;-33
2022/08/06 21:30:42;;;;;;;11.98;10.90;;;29.20;49.00;;;;;;4725208;56;21075;-30
2022/08/06 21:35:44;;;;;;;11.57;10.48;;;29.20;49.00;;;;;;4938147;56;21090;-34
2022/08/06 21:40:45;;;;;;;11.73;10.57;;;29.20;49.10;;;;;;4721494;56;21023;-35
2022/08/06 21:45:46;;;;;;;11.98;10.82;;;29.20;49.10;;;;;;4872997;56;21012;-33
2022/08/06 21:50:46;;;;;;;12.15;11.05;;;29.20;49.80;;;;;;4642480;56;21031;-32
2022/08/06 21:55:47;;;;;;;12.30;10.90;;;29.20;49.20;;;;;;4714411;56;20991;-30
2022/08/06 22:00:48;;;;;;;11.20;10.10;;;29.20;49.20;;;;;;4670827;56;21569;-32
2022/08/06 22:05:49;;;;;;;11.27;10.27;;;29.20;49.20;;;;;;4615847;60;21549;-32
2022/08/06 22:10:50;;;;;;;11.05;10.05;;;29.20;49.90;;;;;;4615876;60;21194;-32
2022/08/06 22:15:52;;;;;;;11.30;10.25;;;29.20;49.30;;;;;;4739751;56;21039;-32
2022/08/06 22:20:55;;;;;;;11.48;10.35;;;29.20;49.40;;;;;;4875733;56;21494;-31
2022/08/06 22:25:56;;;;;;;11.32;10.23;;;29.20;49.40;;;;;;4663360;56;21067;-30
2022/08/06 22:30:57;;;;;;;11.38;10.27;;;29.20;49.50;;;;;;4656870;56;21155;-32
2022/08/06 22:35:58;;;;;;;10.55;9.55;;;29.20;49.50;;;;;;5006812;56;21565;-31
2022/08/06 22:40:59;;;;;;;10.57;9.57;;;29.20;49.50;;;;;;4788376;56;21106;-31
2022/08/06 22:45:59;;;;;;;11.35;10.35;;;29.20;49.60;;;;;;4646963;56;21075;-31
2022/08/06 22:51:00;;;;;;;11.10;10.10;;;29.20;49.50;;;;;;4647187;56;21517;-32
2022/08/06 22:56:02;;;;;;;11.75;10.68;;;29.20;49.70;;;;;;4726161;56;21094;-32
2022/08/06 23:01:03;;;;;;;11.18;10.10;;;29.20;49.60;;;;;;4736950;56;21184;-33
2022/08/06 23:06:04;;;;;;;11.20;10.15;;;29.20;49.70;;;;;;5028724;56;21091;-32
2022/08/06 23:11:05;;;;;;;10.57;9.57;;;29.20;49.70;;;;;;4883271;56;21120;-30
2022/08/06 23:16:07;;;;;;;10.85;9.85;;;29.20;49.70;;;;;;4826066;56;21036;-31
2022/08/06 23:26:27;;;;;;;10.50;9.52;;;29.20;49.70;;;;;;4615846;56;21155;-31
2022/08/06 23:31:28;;;;;;;10.32;9.48;;;29.20;49.90;;;;;;4616118;60;21490;-31
2022/08/06 23:36:29;;;;;;;10.98;9.98;;;29.20;49.90;;;;;;4797611;56;21076;-32
2022/08/06 23:41:30;;;;;;;10.48;9.48;;;29.20;49.90;;;;;;4628540;56;21087;-30
2022/08/06 23:46:31;;;;;;;10.32;9.43;;;29.20;49.80;;;;;;4696012;56;21094;-32
2022/08/06 23:51:32;;;;;;;10.50;9.50;;;29.20;49.90;;;;;;4747940;56;21098;-42
2022/08/06 23:56:33;;;;;;;11.18;10.18;;;29.20;49.90;;;;;;4891798;56;21035;-34
